createdAt,value
2023-04-27T00:00:29.771Z,0.60
2023-04-27T00:03:07.285Z,0.93
2023-04-27T00:05:41.896Z,0.50
2023-04-27T00:08:16.109Z,0.70
2023-04-27T00:10:50.241Z,0.80
2023-04-27T00:13:24.733Z,0.85
2023-04-27T00:15:58.873Z,0.55
2023-04-27T00:18:34.377Z,0.80
2023-04-27T00:21:09.913Z,0.80
2023-04-27T00:23:44.293Z,0.80
2023-04-27T00:26:18.487Z,0.82
2023-04-27T00:28:52.840Z,0.60
2023-04-27T00:31:27.048Z,0.90
2023-04-27T00:34:01.271Z,0.75
2023-04-27T00:36:38.170Z,0.88
2023-04-27T00:39:12.519Z,0.80
2023-04-27T00:41:46.898Z,0.80
2023-04-27T00:44:30.276Z,0.80
2023-04-27T00:47:04.634Z,0.80
2023-04-27T00:49:39.218Z,0.77
2023-04-27T00:52:13.362Z,1.13
2023-04-27T00:54:49.120Z,0.70
2023-04-27T00:57:24.494Z,0.95
2023-04-27T00:59:59.044Z,0.53
2023-04-27T01:02:54.750Z,1.15
2023-04-27T01:05:48.974Z,0.50
2023-04-27T01:08:43.100Z,1.00
2023-04-27T01:11:38.227Z,0.88
2023-04-27T01:14:32.561Z,0.50
2023-04-27T01:17:27.091Z,0.70
2023-04-27T01:20:21.508Z,0.40
2023-04-27T01:23:17.456Z,0.80
2023-04-27T01:26:14.751Z,0.77
2023-04-27T01:29:08.920Z,0.70
2023-04-27T01:32:03.063Z,0.40
2023-04-27T01:34:58.791Z,0.70
2023-04-27T01:37:53.466Z,0.75
2023-04-27T01:40:47.605Z,0.98
2023-04-27T01:43:43.289Z,0.73
2023-04-27T01:46:37.549Z,0.63
2023-04-27T01:49:31.652Z,0.40
2023-04-27T01:52:25.822Z,0.75
2023-04-27T01:55:20.089Z,0.77
2023-04-27T01:58:14.248Z,0.70
2023-04-27T02:01:08.546Z,0.60
2023-04-27T02:04:02.949Z,0.70
2023-04-27T02:06:57.390Z,0.73
2023-04-27T02:09:51.569Z,0.40
2023-04-27T02:12:45.724Z,0.40
2023-04-27T02:15:40.079Z,0.30
2023-04-27T02:18:35.015Z,0.30
2023-04-27T02:21:29.720Z,0.38
2023-04-27T02:24:23.840Z,0.32
2023-04-27T02:27:17.985Z,0.50
2023-04-27T02:30:13.684Z,0.50
2023-04-27T02:33:08.463Z,0.60
2023-04-27T02:36:02.562Z,0.85
2023-04-27T02:38:56.760Z,0.63
2023-04-27T02:41:50.865Z,0.40
2023-04-27T02:44:45.261Z,0.50
2023-04-27T02:47:39.448Z,0.60
2023-04-27T02:50:33.633Z,0.70
2023-04-27T02:53:28.011Z,0.80
2023-04-27T02:56:22.201Z,0.60
2023-04-27T02:59:16.515Z,0.57
2023-04-27T03:02:10.840Z,0.57
2023-04-27T03:05:05.713Z,0.45
2023-04-27T03:07:59.831Z,0.60
2023-04-27T03:10:53.949Z,0.50
2023-04-27T03:13:48.489Z,0.85
2023-04-27T03:16:42.682Z,0.70
2023-04-27T03:19:36.852Z,0.90
2023-04-27T03:22:30.948Z,0.60
2023-04-27T03:25:25.274Z,0.80
2023-04-27T03:28:19.389Z,0.60
2023-04-27T03:31:16.015Z,0.50
2023-04-27T03:34:10.164Z,0.60
2023-04-27T03:37:04.400Z,0.60
2023-04-27T03:39:58.586Z,0.60
2023-04-27T03:42:52.794Z,0.57
2023-04-27T03:45:47.070Z,1.00
2023-04-27T03:48:41.413Z,0.85
2023-04-27T03:51:35.763Z,0.60
2023-04-27T03:54:29.925Z,0.68
2023-04-27T03:57:24.035Z,0.85
2023-04-27T04:00:18.356Z,0.70
2023-04-27T04:03:12.835Z,0.57
2023-04-27T04:06:07.367Z,0.63
2023-04-27T04:09:01.577Z,0.70
2023-04-27T04:11:55.712Z,0.40
2023-04-27T04:14:50.247Z,0.70
2023-04-27T04:17:44.781Z,0.98
2023-04-27T04:20:38.951Z,0.85
2023-04-27T04:23:34.056Z,0.63
2023-04-27T04:26:28.686Z,0.90
2023-04-27T04:29:23.093Z,0.90
2023-04-27T04:32:19.720Z,0.60
2023-04-27T04:35:14.057Z,0.60
2023-04-27T04:38:08.186Z,0.60
2023-04-27T04:41:02.349Z,0.43
2023-04-27T04:43:56.789Z,0.88
2023-04-27T04:46:51.397Z,0.60
2023-04-27T04:49:45.545Z,0.70
2023-04-27T04:52:39.875Z,0.85
2023-04-27T04:55:34.064Z,0.90
2023-04-27T04:58:28.208Z,1.00
2023-04-27T05:01:22.419Z,0.40
2023-04-27T05:04:16.739Z,0.85
2023-04-27T05:07:14.712Z,0.98
2023-04-27T05:10:09.915Z,0.95
2023-04-27T05:13:06.510Z,0.60
2023-04-27T05:18:55.972Z,0.85
2023-04-27T05:21:50.105Z,1.25
2023-04-27T05:24:44.546Z,1.10
2023-04-27T05:27:38.676Z,0.95
2023-04-27T05:30:32.856Z,0.70
2023-04-27T05:33:27.096Z,1.08
2023-04-27T05:36:21.291Z,1.00
2023-04-27T05:39:15.983Z,0.73
2023-04-27T05:42:10.377Z,1.02
2023-04-27T05:45:05.340Z,1.02
2023-04-27T05:47:59.495Z,1.08
2023-04-27T05:51:02.684Z,1.10
2023-04-27T05:53:57.066Z,1.08
2023-04-27T05:56:52.304Z,1.05
2023-04-27T05:59:46.364Z,1.60
2023-04-27T06:02:40.692Z,1.27
2023-04-27T06:05:35.710Z,1.60
2023-04-27T06:08:30.964Z,1.05
2023-04-27T06:11:25.092Z,0.90
2023-04-27T06:14:19.502Z,1.30
2023-04-27T06:17:13.660Z,1.00
2023-04-27T06:20:09.635Z,1.05
2023-04-27T06:23:03.966Z,1.20
2023-04-27T06:25:58.597Z,1.38
2023-04-27T06:28:52.883Z,1.30
2023-04-27T06:31:47.462Z,1.27
2023-04-27T06:34:41.701Z,1.35
2023-04-27T06:37:35.854Z,1.27
2023-04-27T06:40:30.056Z,0.90
2023-04-27T06:43:24.409Z,1.50
2023-04-27T06:46:18.736Z,1.40
2023-04-27T06:49:13.088Z,1.10
2023-04-27T06:52:07.506Z,1.55
2023-04-27T06:55:02.116Z,1.40
2023-04-27T06:57:56.230Z,0.93
2023-04-27T07:00:50.560Z,1.45
2023-04-27T07:03:44.844Z,1.10
2023-04-27T07:06:39.093Z,1.10
2023-04-27T07:09:33.562Z,0.80
2023-04-27T07:12:28.225Z,0.93
2023-04-27T07:15:24.056Z,0.82
2023-04-27T07:18:18.220Z,1.15
2023-04-27T07:21:12.596Z,1.52
2023-04-27T07:24:07.178Z,1.40
2023-04-27T07:27:03.869Z,1.23
2023-04-27T07:29:58.033Z,1.73
2023-04-27T07:32:55.656Z,0.93
2023-04-27T07:35:51.620Z,1.02
2023-04-27T07:38:46.984Z,1.00
2023-04-27T07:41:41.194Z,1.00
2023-04-27T07:44:35.494Z,1.20
2023-04-27T07:47:29.746Z,0.90
2023-04-27T07:50:26.014Z,1.45
2023-04-27T07:53:20.247Z,1.00
2023-04-27T07:56:14.439Z,1.20
2023-04-27T07:59:09.040Z,1.00
2023-04-27T08:05:00.424Z,1.20
2023-04-27T08:07:54.950Z,1.50
2023-04-27T08:10:49.143Z,0.90
2023-04-27T08:13:43.347Z,1.75
2023-04-27T08:16:37.950Z,1.20
2023-04-27T08:19:32.555Z,1.15
2023-04-27T08:22:26.814Z,1.15
2023-04-27T08:25:21.133Z,1.35
2023-04-27T08:28:16.745Z,1.10
2023-04-27T08:31:10.904Z,1.23
2023-04-27T08:34:05.149Z,1.05
2023-04-27T08:36:59.360Z,0.90
2023-04-27T08:39:54.276Z,1.02
2023-04-27T08:43:02.452Z,1.10
2023-04-27T08:45:57.741Z,1.40
2023-04-27T08:48:53.380Z,1.10
2023-04-27T08:51:47.785Z,1.30
2023-04-27T08:54:42.132Z,1.60
2023-04-27T08:57:36.277Z,1.17
2023-04-27T09:00:42.837Z,1.38
2023-04-27T09:03:39.913Z,1.40
2023-04-27T09:09:29.340Z,1.33
2023-04-27T09:12:24.184Z,1.45
2023-04-27T09:15:18.508Z,1.50
2023-04-27T09:18:19.653Z,1.38
2023-04-27T09:21:32.361Z,1.20
2023-04-27T09:24:26.586Z,1.08
2023-04-27T09:27:24.688Z,1.23
2023-04-27T09:30:19.942Z,1.23
2023-04-27T09:33:15.332Z,1.05
2023-04-27T09:36:09.663Z,1.27
2023-04-27T09:39:07.203Z,1.38
2023-04-27T09:42:02.165Z,1.67
2023-04-27T09:44:56.924Z,1.13
2023-04-27T09:47:51.113Z,1.40
2023-04-27T09:50:47.395Z,1.60
2023-04-27T09:53:51.230Z,2.05
2023-04-27T09:57:03.702Z,1.70
2023-04-27T10:00:17.417Z,1.80
2023-04-27T10:03:45.084Z,1.80
2023-04-27T10:06:57.894Z,2.10
2023-04-27T10:09:53.148Z,2.08
2023-04-27T10:13:03.855Z,1.80
2023-04-27T10:15:58.087Z,1.60
2023-04-27T10:18:58.834Z,2.05
2023-04-27T10:22:06.612Z,2.75
2023-04-27T10:28:03.792Z,1.60
2023-04-27T10:30:58.112Z,1.67
2023-04-27T10:33:52.479Z,1.25
2023-04-27T10:36:46.812Z,1.20
2023-04-27T10:39:47.821Z,1.50
2023-04-27T10:42:47.436Z,1.40
2023-04-27T10:45:42.782Z,1.98
2023-04-27T10:48:36.933Z,1.58
2023-04-27T10:51:31.106Z,1.58
2023-04-27T10:54:30.893Z,1.38
2023-04-27T10:57:25.247Z,1.65
2023-04-27T11:00:31.034Z,2.03
2023-04-27T11:03:26.572Z,1.50
2023-04-27T11:06:21.325Z,1.50
2023-04-27T11:09:16.420Z,1.55
2023-04-27T11:12:14.334Z,1.50
2023-04-27T11:15:09.246Z,1.45
2023-04-27T11:18:09.718Z,1.65
2023-04-27T11:21:13.131Z,1.88
2023-04-27T11:24:13.233Z,1.48
2023-04-27T11:27:08.846Z,1.42
2023-04-27T11:30:02.990Z,1.63
2023-04-27T11:32:57.501Z,1.65
2023-04-27T11:35:51.734Z,1.30
2023-04-27T11:38:46.130Z,1.23
2023-04-27T11:41:41.212Z,1.35
2023-04-27T11:44:35.971Z,1.30
2023-04-27T11:47:32.249Z,0.98
2023-04-27T11:50:27.906Z,1.33
2023-04-27T11:53:38.521Z,1.10
2023-04-27T11:56:43.365Z,1.88
2023-04-27T11:59:37.595Z,1.33
2023-04-27T12:02:32.583Z,1.23
2023-04-27T12:05:28.544Z,1.58
2023-04-27T12:08:23.778Z,1.60
2023-04-27T12:11:18.020Z,1.88
2023-04-27T12:14:12.771Z,1.30
2023-04-27T12:17:08.402Z,1.48
2023-04-27T12:20:03.142Z,1.20
2023-04-27T12:22:58.452Z,1.48
2023-04-27T12:25:52.639Z,1.42
2023-04-27T12:28:46.801Z,1.73
2023-04-27T12:31:41.206Z,1.05
2023-04-27T12:34:36.933Z,1.52
2023-04-27T12:37:31.082Z,1.13
2023-04-27T12:40:25.262Z,1.15
2023-04-27T12:43:19.771Z,1.13
2023-04-27T12:46:14.036Z,1.13
2023-04-27T12:49:09.139Z,1.20
2023-04-27T12:52:03.558Z,1.00
2023-04-27T12:55:00.410Z,1.05
2023-04-27T12:57:54.704Z,1.10
2023-04-27T13:00:48.913Z,1.10
2023-04-27T13:03:44.196Z,1.30
2023-04-27T13:06:38.571Z,1.40
2023-04-27T13:09:32.690Z,1.63
2023-04-27T13:12:27.357Z,1.80
2023-04-27T13:15:22.054Z,1.13
2023-04-27T13:18:16.310Z,1.20
2023-04-27T13:21:10.784Z,1.30
2023-04-27T13:24:05.060Z,1.17
2023-04-27T13:26:59.161Z,1.13
2023-04-27T13:29:53.590Z,1.10
2023-04-27T13:32:47.802Z,1.58
2023-04-27T13:35:42.236Z,1.50
2023-04-27T13:38:36.428Z,1.08
2023-04-27T13:41:30.617Z,1.50
2023-04-27T13:44:24.806Z,1.88
2023-04-27T13:47:19.074Z,1.50
2023-04-27T13:50:14.196Z,1.30
2023-04-27T13:53:08.477Z,1.45
2023-04-27T13:56:02.632Z,1.55
2023-04-27T13:58:57.011Z,1.27
2023-04-27T14:01:51.186Z,2.03
2023-04-27T14:04:45.464Z,1.40
2023-04-27T14:07:39.723Z,1.70
2023-04-27T14:10:33.881Z,1.60
2023-04-27T14:13:28.002Z,1.70
2023-04-27T14:16:22.297Z,1.95
2023-04-27T14:19:17.053Z,1.85
2023-04-27T14:22:11.685Z,1.83
2023-04-27T14:25:06.118Z,1.92
2023-04-27T14:28:02.031Z,1.70
2023-04-27T14:30:56.266Z,1.50
2023-04-27T14:33:50.615Z,1.90
2023-04-27T14:36:44.947Z,1.45
2023-04-27T14:39:39.575Z,1.63
2023-04-27T14:42:34.316Z,2.00
2023-04-27T14:45:33.842Z,1.35
2023-04-27T14:48:31.131Z,1.40
2023-04-27T14:51:25.265Z,1.30
2023-04-27T14:54:19.433Z,1.48
2023-04-27T14:57:13.609Z,1.73
2023-04-27T15:00:11.015Z,1.65
2023-04-27T15:03:05.495Z,1.35
2023-04-27T15:06:00.173Z,1.73
2023-04-27T15:08:54.681Z,2.25
2023-04-27T15:11:48.824Z,1.42
2023-04-27T15:14:42.983Z,1.27
2023-04-27T15:17:37.526Z,1.88
2023-04-27T15:20:31.871Z,1.70
2023-04-27T15:23:26.925Z,1.30
2023-04-27T15:26:21.055Z,1.40
2023-04-27T15:29:15.485Z,1.70
2023-04-27T15:32:09.952Z,1.50
2023-04-27T15:35:05.592Z,1.63
2023-04-27T15:37:59.808Z,1.48
2023-04-27T15:40:53.886Z,1.25
2023-04-27T15:43:48.725Z,1.70
2023-04-27T15:46:42.918Z,1.33
2023-04-27T15:49:45.832Z,1.58
2023-04-27T15:52:48.232Z,1.65
2023-04-27T15:55:42.536Z,1.50
2023-04-27T15:58:36.782Z,1.35
2023-04-27T16:01:31.096Z,1.75
2023-04-27T16:04:25.346Z,1.10
2023-04-27T16:07:19.580Z,2.67
2023-04-27T16:10:14.479Z,1.13
2023-04-27T16:13:08.587Z,1.50
2023-04-27T16:16:03.269Z,1.75
2023-04-27T16:18:58.915Z,1.35
2023-04-27T16:21:53.050Z,1.83
2023-04-27T16:24:47.285Z,1.85
2023-04-27T16:27:41.825Z,1.92
2023-04-27T16:30:36.113Z,1.90
2023-04-27T16:33:30.243Z,1.38
2023-04-27T16:36:24.474Z,1.67
2023-04-27T16:39:20.453Z,1.75
2023-04-27T16:42:19.819Z,2.22
2023-04-27T16:45:14.080Z,1.40
2023-04-27T16:48:08.904Z,1.67
2023-04-27T16:51:03.261Z,2.05
2023-04-27T16:53:57.945Z,1.55
2023-04-27T16:56:53.844Z,1.27
2023-04-27T16:59:49.249Z,1.77
2023-04-27T17:02:43.958Z,2.00
2023-04-27T17:05:38.516Z,1.77
2023-04-27T17:08:32.862Z,1.50
2023-04-27T17:11:27.640Z,1.42
2023-04-27T17:14:23.594Z,1.45
2023-04-27T17:17:18.498Z,2.40
2023-04-27T17:20:13.967Z,1.70
2023-04-27T17:23:08.236Z,1.92
2023-04-27T17:26:02.730Z,1.70
2023-04-27T17:29:01.149Z,2.35
2023-04-27T17:31:55.386Z,1.50
2023-04-27T17:34:49.757Z,1.60
2023-04-27T17:37:43.849Z,2.28
2023-04-27T17:40:38.068Z,1.83
2023-04-27T17:43:32.340Z,1.70
2023-04-27T17:46:26.952Z,1.42
2023-04-27T17:49:21.561Z,2.63
2023-04-27T17:52:15.772Z,2.00
2023-04-27T17:55:10.030Z,1.70
2023-04-27T17:58:07.631Z,2.10
2023-04-27T18:01:02.254Z,2.45
2023-04-27T18:03:56.937Z,1.70
2023-04-27T18:06:51.181Z,2.20
2023-04-27T18:09:45.343Z,1.77
2023-04-27T18:12:39.445Z,1.70
2023-04-27T18:15:33.570Z,1.92
2023-04-27T18:18:28.067Z,1.60
2023-04-27T18:21:22.307Z,2.17
2023-04-27T18:24:16.448Z,1.65
2023-04-27T18:27:11.013Z,1.80
2023-04-27T18:30:07.472Z,2.38
2023-04-27T18:33:01.622Z,1.80
2023-04-27T18:35:55.800Z,1.77
2023-04-27T18:38:49.931Z,2.28
2023-04-27T18:41:44.621Z,2.30
2023-04-27T18:44:39.290Z,2.30
2023-04-27T18:47:33.492Z,2.00
2023-04-27T18:50:28.086Z,2.05
2023-04-27T18:53:22.715Z,2.05
2023-04-27T18:56:16.943Z,1.30
2023-04-27T18:59:11.180Z,2.42
2023-04-27T19:02:05.696Z,1.63
2023-04-27T19:05:11.254Z,2.20
2023-04-27T19:08:07.088Z,2.70
2023-04-27T19:11:01.297Z,1.95
2023-04-27T19:13:55.476Z,1.60
2023-04-27T19:16:49.631Z,1.98
2023-04-27T19:19:43.909Z,1.98
2023-04-27T19:22:38.360Z,1.73
2023-04-27T19:25:32.595Z,1.90
2023-04-27T19:28:26.853Z,2.13
2023-04-27T19:31:21.112Z,1.63
2023-04-27T19:34:15.322Z,1.55
2023-04-27T19:37:09.495Z,2.05
2023-04-27T19:40:03.646Z,2.00
2023-04-27T19:42:57.889Z,2.17
2023-04-27T19:45:52.433Z,2.35
2023-04-27T19:48:46.825Z,1.90
2023-04-27T19:51:43.624Z,1.77
2023-04-27T19:54:39.345Z,2.35
2023-04-27T19:57:33.555Z,2.15
2023-04-27T20:00:27.888Z,1.98
2023-04-27T20:03:22.898Z,1.60
2023-04-27T20:06:18.185Z,2.63
2023-04-27T20:09:12.422Z,1.92
2023-04-27T20:12:07.370Z,2.22
2023-04-27T20:15:02.419Z,2.58
2023-04-27T20:17:56.704Z,2.42
2023-04-27T20:20:52.350Z,2.47
2023-04-27T20:23:49.025Z,1.65
2023-04-27T20:26:43.153Z,1.05
2023-04-27T20:29:37.665Z,1.25
2023-04-27T20:32:31.806Z,0.73
2023-04-27T20:35:30.157Z,0.70
2023-04-27T20:38:26.655Z,0.68
2023-04-27T20:41:23.383Z,0.93
2023-04-27T20:44:21.100Z,1.73
2023-04-27T20:47:18.345Z,1.30
2023-04-27T20:50:14.381Z,1.23
2023-04-27T20:53:09.120Z,0.93
2023-04-27T20:56:04.059Z,1.27
2023-04-27T20:58:59.133Z,1.20
2023-04-27T21:01:53.778Z,1.13
2023-04-27T21:04:48.771Z,1.77
2023-04-27T21:07:44.359Z,1.40
2023-04-27T21:10:40.928Z,1.55
2023-04-27T21:13:37.373Z,1.40
2023-04-27T21:16:32.722Z,1.67
2023-04-27T21:19:27.659Z,1.85
2023-04-27T21:22:22.408Z,1.70
2023-04-27T21:25:17.191Z,2.00
2023-04-27T21:28:12.114Z,2.13
2023-04-27T21:31:09.228Z,2.58
2023-04-27T21:34:09.323Z,2.38
2023-04-27T21:37:06.252Z,2.25
2023-04-27T21:40:02.703Z,3.13
2023-04-27T21:43:02.680Z,2.50
2023-04-27T21:45:59.674Z,1.67
2023-04-27T21:48:54.425Z,1.85
2023-04-27T21:51:49.371Z,1.85
2023-04-27T21:54:44.008Z,2.38
2023-04-27T21:57:38.763Z,2.28
2023-04-27T22:00:33.359Z,2.10
2023-04-27T22:03:29.026Z,1.90
2023-04-27T22:06:24.385Z,2.63
2023-04-27T22:09:19.042Z,2.35
2023-04-27T22:12:13.646Z,1.98
2023-04-27T22:15:08.603Z,2.70
2023-04-27T22:18:07.983Z,2.70
2023-04-27T22:21:02.493Z,2.53
2023-04-27T22:23:58.774Z,2.03
2023-04-27T22:26:53.532Z,2.67
2023-04-27T22:29:47.774Z,2.53
2023-04-27T22:32:42.601Z,3.20
2023-04-27T22:35:38.653Z,2.47
2023-04-27T22:38:33.077Z,2.30
2023-04-27T22:41:27.630Z,2.38
2023-04-27T22:44:22.471Z,3.05
2023-04-27T22:47:16.789Z,2.08
2023-04-27T22:50:11.689Z,2.42
2023-04-27T22:53:09.146Z,2.13
2023-04-27T22:56:03.594Z,1.80
2023-04-27T22:58:58.078Z,2.17
2023-04-27T23:01:52.980Z,2.72
2023-04-27T23:04:47.290Z,2.47
2023-04-27T23:07:43.996Z,2.78
2023-04-27T23:10:39.973Z,2.58
2023-04-27T23:13:34.191Z,2.72
2023-04-27T23:16:28.557Z,2.35
2023-04-27T23:19:22.792Z,2.60
2023-04-27T23:22:17.513Z,2.80
2023-04-27T23:25:12.672Z,2.28
2023-04-27T23:28:06.966Z,1.92
2023-04-27T23:31:01.176Z,2.20
2023-04-27T23:33:55.385Z,2.30
2023-04-27T23:36:49.602Z,2.75
2023-04-27T23:39:43.737Z,2.10
2023-04-27T23:42:40.261Z,2.13
2023-04-27T23:45:34.468Z,2.15
2023-04-27T23:48:28.695Z,2.10
2023-04-27T23:51:22.869Z,1.92
2023-04-27T23:54:17.501Z,1.80
2023-04-27T23:57:11.975Z,1.45
